Wilson Lista — 8PRW — position and weather

sailwx.info

Track history (hours):
 
Tides and Currents Weather Stations Pressure Air Temp Water Temp Dewpoint Dewpoint Depression Visibility Wind Speed Wind Dir Waves Ship Positions

Wilson Lista

Last reported at 2016-Oct-01 15:33 UTC. Time now 2016-Oct-01 20:39 UTC.
Position N 53°51' E 008°58'.

Length 88 m; draft 5.6 m.

Type: Cargo ship. MMSI: 314188000.

Date/timePositionNaut miles runAvg speedWind from/ knotsBaromVisibWave heightAir tempDewpointWater temp
2016-Oct-01 15:33N 53°51' E 008°58'8 8.5
2016-Oct-01 14:33N 53°52' E 008°44'9 8.8
2016-Oct-01 13:31N 53°58' E 008°32'9410.5
2016-Oct-01 04:33N 53°39' E 005°56'10 9.5
2016-Oct-01 03:33N 53°37' E 005°40'94 8.3
2016-Sep-30 16:18N 52°28' E 003°55'1810.1
2016-Sep-30 14:33N 52°10' E 003°59'1010.0
2016-Sep-30 13:33N 52°01' E 004°02'15 4.9
2016-Sep-30 10:28N 51°54' E 004°25'0 0.0
2016-Sep-30 08:33N 51°54' E 004°25'0 0.0
2016-Sep-30 06:29N 51°54' E 004°25'0 0.0
2016-Sep-30 03:31N 51°54' E 004°25'0 0.0
2016-Sep-30 02:33N 51°54' E 004°25'0 0.0
2016-Sep-29 23:32N 51°54' E 004°25'0 0.0
2016-Sep-29 21:31N 51°54' E 004°25'0 0.0
2016-Sep-29 20:31N 51°54' E 004°25'0 0.0
2016-Sep-29 19:33N 51°54' E 004°25'0 0.0
2016-Sep-29 16:32N 51°54' E 004°25'0 0.0
2016-Sep-29 15:31N 51°54' E 004°25'4 2.1
2016-Sep-29 13:33N 51°54' E 004°18'116 8.9
2016-Sep-29 00:33N 52°53' E 001°34'71 8.9
2016-Sep-28 16:33N 53°35' W 000°01'7 6.2
2016-Sep-28 15:28N 53°38' W 000°11'0 0.1
2016-Sep-28 12:33N 53°38' W 000°12'0 0.0
2016-Sep-28 08:28N 53°38' W 000°12'0 0.0
2016-Sep-28 03:23N 53°38' W 000°12'0 0.0
2016-Sep-28 02:26N 53°38' W 000°12'0 0.0
2016-Sep-28 01:25N 53°38' W 000°12'0 0.0
2016-Sep-27 23:28N 53°38' W 000°12'0 0.0
2016-Sep-27 19:32N 53°38' W 000°12'0 0.0
2016-Sep-27 14:27N 53°38' W 000°12'0 0.0
2016-Sep-27 13:32N 53°38' W 000°12'0 0.0
2016-Sep-27 10:31N 53°38' W 000°12'0 0.0
2016-Sep-27 00:27N 53°38' W 000°12'0 0.0
2016-Sep-26 20:31N 53°38' W 000°12'0 0.0
2016-Sep-26 19:27N 53°38' W 000°12'0 0.0
2016-Sep-26 15:29N 53°38' W 000°12'0 0.0
2016-Sep-26 13:31N 53°38' W 000°12'0 0.0
2016-Sep-26 11:33N 53°38' W 000°12'0 0.0
2016-Sep-26 08:32N 53°38' W 000°12'0 0.0
2016-Sep-26 02:32N 53°38' W 000°12'0 0.0
2016-Sep-26 01:32N 53°38' W 000°12'0 0.0
2016-Sep-26 00:31N 53°38' W 000°12'0 0.0
2016-Sep-25 21:33N 53°38' W 000°12'0 0.0
2016-Sep-25 17:28N 53°38' W 000°12'0 0.0
2016-Sep-25 16:31N 53°38' W 000°12'0 0.0
2016-Sep-25 15:33N 53°38' W 000°12'0 0.0
2016-Sep-25 14:33N 53°38' W 000°12'0 0.0
2016-Sep-25 12:32N 53°38' W 000°12'0 0.0
2016-Sep-25 11:32N 53°38' W 000°12'0 0.0
2016-Sep-25 10:31N 53°38' W 000°12'0 0.0
2016-Sep-25 09:31N 53°38' W 000°12'0 0.0
2016-Sep-25 07:30N 53°38' W 000°12'0 0.0
2016-Sep-25 04:32N 53°38' W 000°12'0 0.0
2016-Sep-25 00:33N 53°38' W 000°12'0 0.0
2016-Sep-24 22:32N 53°38' W 000°12'0 0.0
2016-Sep-24 21:32N 53°38' W 000°12'0 0.0
2016-Sep-24 19:31N 53°38' W 000°12'0 0.0
2016-Sep-24 18:33N 53°38' W 000°12'0 0.0
2016-Sep-24 17:33N 53°38' W 000°12'0 0.0
2016-Sep-24 16:33N 53°38' W 000°12'0 0.0
2016-Sep-24 14:32N 53°38' W 000°12'0 0.0
2016-Sep-24 12:28N 53°38' W 000°12'0 0.0
2016-Sep-24 10:27N 53°38' W 000°12'0 0.0
2016-Sep-24 09:29N 53°38' W 000°12'0 0.0
2016-Sep-24 03:30N 53°38' W 000°12'0 0.0
2016-Sep-24 02:29N 53°38' W 000°12'0 0.0
2016-Sep-24 01:32N 53°38' W 000°12'0 0.0
2016-Sep-24 00:32N 53°38' W 000°12'0 0.0
2016-Sep-23 19:29N 53°38' W 000°12'0 0.0
2016-Sep-23 17:32N 53°38' W 000°12'0 0.0
2016-Sep-23 16:31N 53°38' W 000°12'0 0.0
2016-Sep-23 15:31N 53°38' W 000°12'0 0.0
2016-Sep-23 13:33N 53°38' W 000°12'19 4.8
2016-Sep-23 09:32N 53°33' E 000°20'21 6.9
2016-Sep-23 06:27N 53°16' E 000°42'19 9.9
2016-Sep-23 04:33N 53°05' E 001°08'10 9.9
2016-Sep-23 03:33N 53°01' E 001°22'9 9.4
2016-Sep-23 02:33N 52°56' E 001°35'9 8.7
2016-Sep-23 01:33N 52°51' E 001°47'121 9.3
2016-Sep-22 12:34N 51°48' E 004°37'1 0.1
2016-Sep-22 04:33N 51°48' E 004°38'0 0.0
2016-Sep-22 03:33N 51°48' E 004°38'0 0.0
2016-Sep-22 00:33N 51°48' E 004°38'0 0.0
2016-Sep-21 23:34N 51°48' E 004°38'0 0.0
2016-Sep-21 22:34N 51°48' E 004°38'0 0.0
2016-Sep-21 19:34N 51°48' E 004°38'0 0.0
2016-Sep-21 16:34N 51°48' E 004°38'  
Track history (hours):
 
Tides and Currents Weather Stations Pressure Air Temp Water Temp Dewpoint Dewpoint Depression Visibility Wind Speed Wind Dir Waves Ship Positions

Wilson Lista

Last reported at 2016-Oct-01 15:33 UTC. Time now 2016-Oct-01 20:39 UTC.
Position N 53°51' E 008°58'.

Length 88 m; draft 5.6 m.

Type: Cargo ship. MMSI: 314188000.

Date/timePositionNaut miles runAvg speedWind from/ knotsBaromVisibWave heightAir tempDewpointWater temp
2016-Oct-01 15:33N 53°51' E 008°58'8 8.5
2016-Oct-01 14:33N 53°52' E 008°44'9 8.8
2016-Oct-01 13:31N 53°58' E 008°32'9410.5
2016-Oct-01 04:33N 53°39' E 005°56'10 9.5
2016-Oct-01 03:33N 53°37' E 005°40'94 8.3
2016-Sep-30 16:18N 52°28' E 003°55'1810.1
2016-Sep-30 14:33N 52°10' E 003°59'1010.0
2016-Sep-30 13:33N 52°01' E 004°02'15 4.9
2016-Sep-30 10:28N 51°54' E 004°25'0 0.0
2016-Sep-30 08:33N 51°54' E 004°25'0 0.0
2016-Sep-30 06:29N 51°54' E 004°25'0 0.0
2016-Sep-30 03:31N 51°54' E 004°25'0 0.0
2016-Sep-30 02:33N 51°54' E 004°25'0 0.0
2016-Sep-29 23:32N 51°54' E 004°25'0 0.0
2016-Sep-29 21:31N 51°54' E 004°25'0 0.0
2016-Sep-29 20:31N 51°54' E 004°25'0 0.0
2016-Sep-29 19:33N 51°54' E 004°25'0 0.0
2016-Sep-29 16:32N 51°54' E 004°25'0 0.0
2016-Sep-29 15:31N 51°54' E 004°25'4 2.1
2016-Sep-29 13:33N 51°54' E 004°18'116 8.9
2016-Sep-29 00:33N 52°53' E 001°34'71 8.9
2016-Sep-28 16:33N 53°35' W 000°01'7 6.2
2016-Sep-28 15:28N 53°38' W 000°11'0 0.1
2016-Sep-28 12:33N 53°38' W 000°12'0 0.0
2016-Sep-28 08:28N 53°38' W 000°12'0 0.0
2016-Sep-28 03:23N 53°38' W 000°12'0 0.0
2016-Sep-28 02:26N 53°38' W 000°12'0 0.0
2016-Sep-28 01:25N 53°38' W 000°12'0 0.0
2016-Sep-27 23:28N 53°38' W 000°12'0 0.0
2016-Sep-27 19:32N 53°38' W 000°12'0 0.0
2016-Sep-27 14:27N 53°38' W 000°12'0 0.0
2016-Sep-27 13:32N 53°38' W 000°12'0 0.0
2016-Sep-27 10:31N 53°38' W 000°12'0 0.0
2016-Sep-27 00:27N 53°38' W 000°12'0 0.0
2016-Sep-26 20:31N 53°38' W 000°12'0 0.0
2016-Sep-26 19:27N 53°38' W 000°12'0 0.0
2016-Sep-26 15:29N 53°38' W 000°12'0 0.0
2016-Sep-26 13:31N 53°38' W 000°12'0 0.0
2016-Sep-26 11:33N 53°38' W 000°12'0 0.0
2016-Sep-26 08:32N 53°38' W 000°12'0 0.0
2016-Sep-26 02:32N 53°38' W 000°12'0 0.0
2016-Sep-26 01:32N 53°38' W 000°12'0 0.0
2016-Sep-26 00:31N 53°38' W 000°12'0 0.0
2016-Sep-25 21:33N 53°38' W 000°12'0 0.0
2016-Sep-25 17:28N 53°38' W 000°12'0 0.0
2016-Sep-25 16:31N 53°38' W 000°12'0 0.0
2016-Sep-25 15:33N 53°38' W 000°12'0 0.0
2016-Sep-25 14:33N 53°38' W 000°12'0 0.0
2016-Sep-25 12:32N 53°38' W 000°12'0 0.0
2016-Sep-25 11:32N 53°38' W 000°12'0 0.0
2016-Sep-25 10:31N 53°38' W 000°12'0 0.0
2016-Sep-25 09:31N 53°38' W 000°12'0 0.0
2016-Sep-25 07:30N 53°38' W 000°12'0 0.0
2016-Sep-25 04:32N 53°38' W 000°12'0 0.0
2016-Sep-25 00:33N 53°38' W 000°12'0 0.0
2016-Sep-24 22:32N 53°38' W 000°12'0 0.0
2016-Sep-24 21:32N 53°38' W 000°12'0 0.0
2016-Sep-24 19:31N 53°38' W 000°12'0 0.0
2016-Sep-24 18:33N 53°38' W 000°12'0 0.0
2016-Sep-24 17:33N 53°38' W 000°12'0 0.0
2016-Sep-24 16:33N 53°38' W 000°12'0 0.0
2016-Sep-24 14:32N 53°38' W 000°12'0 0.0
2016-Sep-24 12:28N 53°38' W 000°12'0 0.0
2016-Sep-24 10:27N 53°38' W 000°12'0 0.0
2016-Sep-24 09:29N 53°38' W 000°12'0 0.0
2016-Sep-24 03:30N 53°38' W 000°12'0 0.0
2016-Sep-24 02:29N 53°38' W 000°12'0 0.0
2016-Sep-24 01:32N 53°38' W 000°12'0 0.0
2016-Sep-24 00:32N 53°38' W 000°12'0 0.0
2016-Sep-23 19:29N 53°38' W 000°12'0 0.0
2016-Sep-23 17:32N 53°38' W 000°12'0 0.0
2016-Sep-23 16:31N 53°38' W 000°12'0 0.0
2016-Sep-23 15:31N 53°38' W 000°12'0 0.0
2016-Sep-23 13:33N 53°38' W 000°12'19 4.8
2016-Sep-23 09:32N 53°33' E 000°20'21 6.9
2016-Sep-23 06:27N 53°16' E 000°42'19 9.9
2016-Sep-23 04:33N 53°05' E 001°08'10 9.9
2016-Sep-23 03:33N 53°01' E 001°22'9 9.4
2016-Sep-23 02:33N 52°56' E 001°35'9 8.7
2016-Sep-23 01:33N 52°51' E 001°47'121 9.3
2016-Sep-22 12:34N 51°48' E 004°37'1 0.1
2016-Sep-22 04:33N 51°48' E 004°38'0 0.0
2016-Sep-22 03:33N 51°48' E 004°38'0 0.0
2016-Sep-22 00:33N 51°48' E 004°38'0 0.0
2016-Sep-21 23:34N 51°48' E 004°38'0 0.0
2016-Sep-21 22:34N 51°48' E 004°38'0 0.0
2016-Sep-21 19:34N 51°48' E 004°38'0 0.0
2016-Sep-21 16:34N 51°48' E 004°38'  

Dump ship's entire track history